sensor_id;sensor_type;location;lat;lon;timestamp;P1;durP1;ratioP1;P2;durP2;ratioP2
70301;SDS011;57706;56.326;43.882;2023-09-19T00:00:45;10.68;;;6.22;;
70301;SDS011;57706;56.326;43.882;2023-09-19T00:03:15;14.02;;;6.78;;
70301;SDS011;57706;56.326;43.882;2023-09-19T00:05:41;17.95;;;6.60;;
70301;SDS011;57706;56.326;43.882;2023-09-19T00:08:10;15.00;;;6.63;;
70301;SDS011;57706;56.326;43.882;2023-09-19T00:10:36;15.13;;;6.97;;
70301;SDS011;57706;56.326;43.882;2023-09-19T00:13:02;12.00;;;6.57;;
70301;SDS011;57706;56.326;43.882;2023-09-19T00:15:36;12.52;;;6.97;;
70301;SDS011;57706;56.326;43.882;2023-09-19T00:18:08;12.18;;;6.80;;
70301;SDS011;57706;56.326;43.882;2023-09-19T00:20:37;19.95;;;6.60;;
70301;SDS011;57706;56.326;43.882;2023-09-19T00:23:05;13.50;;;6.38;;
70301;SDS011;57706;56.326;43.882;2023-09-19T00:25:31;11.75;;;6.20;;
70301;SDS011;57706;56.326;43.882;2023-09-19T00:28:04;11.52;;;5.97;;
70301;SDS011;57706;56.326;43.882;2023-09-19T00:30:32;15.25;;;6.90;;
70301;SDS011;57706;56.326;43.882;2023-09-19T00:32:59;15.77;;;7.05;;
70301;SDS011;57706;56.326;43.882;2023-09-19T00:35:26;9.80;;;6.55;;
70301;SDS011;57706;56.326;43.882;2023-09-19T00:37:53;18.65;;;6.63;;
70301;SDS011;57706;56.326;43.882;2023-09-19T00:40:19;13.30;;;6.90;;
70301;SDS011;57706;56.326;43.882;2023-09-19T00:42:47;12.85;;;6.25;;
70301;SDS011;57706;56.326;43.882;2023-09-19T00:45:14;10.45;;;6.93;;
70301;SDS011;57706;56.326;43.882;2023-09-19T00:47:45;11.02;;;6.68;;
70301;SDS011;57706;56.326;43.882;2023-09-19T00:50:17;10.95;;;6.85;;
70301;SDS011;57706;56.326;43.882;2023-09-19T00:52:48;11.40;;;6.68;;
70301;SDS011;57706;56.326;43.882;2023-09-19T00:55:16;12.93;;;6.53;;
70301;SDS011;57706;56.326;43.882;2023-09-19T00:57:46;13.00;;;6.95;;
70301;SDS011;57706;56.326;43.882;2023-09-19T01:00:13;10.13;;;6.85;;
70301;SDS011;57706;56.326;43.882;2023-09-19T01:02:45;10.13;;;6.60;;
70301;SDS011;57706;56.326;43.882;2023-09-19T01:05:13;13.02;;;7.18;;
70301;SDS011;57706;56.326;43.882;2023-09-19T01:07:39;11.68;;;7.20;;
70301;SDS011;57706;56.326;43.882;2023-09-19T01:10:06;11.80;;;7.38;;
70301;SDS011;57706;56.326;43.882;2023-09-19T01:12:42;13.90;;;6.97;;
70301;SDS011;57706;56.326;43.882;2023-09-19T01:21:05;14.63;;;6.88;;
70301;SDS011;57706;56.326;43.882;2023-09-19T01:31:46;13.32;;;7.15;;
70301;SDS011;57706;56.326;43.882;2023-09-19T01:34:13;15.77;;;6.80;;
70301;SDS011;57706;56.326;43.882;2023-09-19T01:36:39;11.32;;;6.82;;
70301;SDS011;57706;56.326;43.882;2023-09-19T01:39:07;12.07;;;6.97;;
70301;SDS011;57706;56.326;43.882;2023-09-19T01:44:13;17.23;;;8.00;;
70301;SDS011;57706;56.326;43.882;2023-09-19T01:46:47;17.63;;;8.35;;
70301;SDS011;57706;56.326;43.882;2023-09-19T01:49:33;15.57;;;8.38;;
70301;SDS011;57706;56.326;43.882;2023-09-19T01:52:18;19.23;;;8.18;;
70301;SDS011;57706;56.326;43.882;2023-09-19T01:54:51;16.05;;;8.45;;
70301;SDS011;57706;56.326;43.882;2023-09-19T01:57:24;18.25;;;8.52;;
70301;SDS011;57706;56.326;43.882;2023-09-19T02:02:39;18.20;;;8.77;;
70301;SDS011;57706;56.326;43.882;2023-09-19T02:05:07;17.27;;;9.10;;
70301;SDS011;57706;56.326;43.882;2023-09-19T02:07:33;19.05;;;9.13;;
70301;SDS011;57706;56.326;43.882;2023-09-19T02:10:04;17.77;;;9.43;;
70301;SDS011;57706;56.326;43.882;2023-09-19T02:12:32;15.27;;;9.38;;
70301;SDS011;57706;56.326;43.882;2023-09-19T02:17:32;20.60;;;9.30;;
70301;SDS011;57706;56.326;43.882;2023-09-19T02:19:58;16.70;;;9.50;;
70301;SDS011;57706;56.326;43.882;2023-09-19T02:22:28;19.20;;;9.55;;
70301;SDS011;57706;56.326;43.882;2023-09-19T02:24:56;19.52;;;9.20;;
70301;SDS011;57706;56.326;43.882;2023-09-19T02:27:25;16.80;;;9.27;;
70301;SDS011;57706;56.326;43.882;2023-09-19T02:29:51;16.77;;;9.27;;
70301;SDS011;57706;56.326;43.882;2023-09-19T02:32:17;19.48;;;9.82;;
70301;SDS011;57706;56.326;43.882;2023-09-19T02:34:44;15.80;;;9.45;;
70301;SDS011;57706;56.326;43.882;2023-09-19T02:37:10;19.83;;;9.32;;
70301;SDS011;57706;56.326;43.882;2023-09-19T02:39:39;23.05;;;9.73;;
70301;SDS011;57706;56.326;43.882;2023-09-19T02:42:05;20.70;;;10.52;;
70301;SDS011;57706;56.326;43.882;2023-09-19T02:44:31;19.17;;;10.23;;
70301;SDS011;57706;56.326;43.882;2023-09-19T02:46:58;18.90;;;10.55;;
70301;SDS011;57706;56.326;43.882;2023-09-19T02:49:24;21.05;;;10.20;;
70301;SDS011;57706;56.326;43.882;2023-09-19T02:51:50;18.83;;;9.05;;
70301;SDS011;57706;56.326;43.882;2023-09-19T02:54:17;23.95;;;10.70;;
70301;SDS011;57706;56.326;43.882;2023-09-19T02:56:43;17.77;;;10.38;;
70301;SDS011;57706;56.326;43.882;2023-09-19T02:59:09;22.23;;;10.43;;
70301;SDS011;57706;56.326;43.882;2023-09-19T03:01:36;19.08;;;9.68;;
70301;SDS011;57706;56.326;43.882;2023-09-19T03:04:05;18.20;;;10.07;;
70301;SDS011;57706;56.326;43.882;2023-09-19T03:06:37;21.02;;;11.65;;
70301;SDS011;57706;56.326;43.882;2023-09-19T03:09:04;23.27;;;10.35;;
70301;SDS011;57706;56.326;43.882;2023-09-19T03:11:38;20.38;;;10.43;;
70301;SDS011;57706;56.326;43.882;2023-09-19T03:14:06;19.15;;;11.10;;
70301;SDS011;57706;56.326;43.882;2023-09-19T03:16:32;24.10;;;10.30;;
70301;SDS011;57706;56.326;43.882;2023-09-19T03:18:59;24.90;;;10.75;;
70301;SDS011;57706;56.326;43.882;2023-09-19T03:21:26;18.65;;;10.52;;
70301;SDS011;57706;56.326;43.882;2023-09-19T03:23:51;31.40;;;11.85;;
70301;SDS011;57706;56.326;43.882;2023-09-19T03:26:17;24.20;;;11.98;;
70301;SDS011;57706;56.326;43.882;2023-09-19T03:28:44;21.08;;;11.20;;
70301;SDS011;57706;56.326;43.882;2023-09-19T03:31:11;30.77;;;11.98;;
70301;SDS011;57706;56.326;43.882;2023-09-19T03:33:37;23.95;;;11.15;;
70301;SDS011;57706;56.326;43.882;2023-09-19T03:36:04;19.58;;;10.75;;
70301;SDS011;57706;56.326;43.882;2023-09-19T03:38:30;23.42;;;10.45;;
70301;SDS011;57706;56.326;43.882;2023-09-19T03:40:58;29.30;;;12.00;;
70301;SDS011;57706;56.326;43.882;2023-09-19T03:43:24;27.80;;;10.45;;
70301;SDS011;57706;56.326;43.882;2023-09-19T03:45:51;18.67;;;10.25;;
70301;SDS011;57706;56.326;43.882;2023-09-19T03:48:18;23.77;;;10.70;;
70301;SDS011;57706;56.326;43.882;2023-09-19T03:50:45;19.83;;;10.02;;
70301;SDS011;57706;56.326;43.882;2023-09-19T03:53:11;31.58;;;10.82;;
70301;SDS011;57706;56.326;43.882;2023-09-19T03:55:37;21.42;;;9.98;;
70301;SDS011;57706;56.326;43.882;2023-09-19T03:58:07;26.25;;;10.43;;
70301;SDS011;57706;56.326;43.882;2023-09-19T04:00:33;19.23;;;10.05;;
70301;SDS011;57706;56.326;43.882;2023-09-19T04:03:08;25.65;;;10.30;;
70301;SDS011;57706;56.326;43.882;2023-09-19T04:05:36;23.77;;;10.05;;
70301;SDS011;57706;56.326;43.882;2023-09-19T04:08:01;23.80;;;9.43;;
70301;SDS011;57706;56.326;43.882;2023-09-19T04:10:27;24.33;;;10.15;;
70301;SDS011;57706;56.326;43.882;2023-09-19T04:12:54;24.75;;;9.70;;
70301;SDS011;57706;56.326;43.882;2023-09-19T04:15:22;13.93;;;7.75;;
70301;SDS011;57706;56.326;43.882;2023-09-19T04:17:50;17.35;;;8.10;;
70301;SDS011;57706;56.326;43.882;2023-09-19T04:20:17;20.33;;;7.43;;
70301;SDS011;57706;56.326;43.882;2023-09-19T04:22:43;15.32;;;7.40;;
70301;SDS011;57706;56.326;43.882;2023-09-19T04:25:09;13.35;;;6.07;;
70301;SDS011;57706;56.326;43.882;2023-09-19T04:27:35;9.02;;;4.65;;
70301;SDS011;57706;56.326;43.882;2023-09-19T04:30:01;12.75;;;5.43;;
70301;SDS011;57706;56.326;43.882;2023-09-19T04:32:30;9.30;;;4.03;;
70301;SDS011;57706;56.326;43.882;2023-09-19T04:34:58;6.47;;;3.42;;
70301;SDS011;57706;56.326;43.882;2023-09-19T04:37:26;10.48;;;3.65;;
70301;SDS011;57706;56.326;43.882;2023-09-19T04:39:51;9.70;;;2.65;;
70301;SDS011;57706;56.326;43.882;2023-09-19T04:42:18;10.57;;;2.28;;
70301;SDS011;57706;56.326;43.882;2023-09-19T04:44:44;12.88;;;2.20;;
70301;SDS011;57706;56.326;43.882;2023-09-19T04:47:10;3.17;;;1.60;;
70301;SDS011;57706;56.326;43.882;2023-09-19T04:49:37;7.40;;;1.90;;
70301;SDS011;57706;56.326;43.882;2023-09-19T04:52:05;4.72;;;1.42;;
70301;SDS011;57706;56.326;43.882;2023-09-19T04:54:32;8.50;;;1.70;;
70301;SDS011;57706;56.326;43.882;2023-09-19T04:56:59;5.93;;;1.40;;
70301;SDS011;57706;56.326;43.882;2023-09-19T04:59:26;1.65;;;1.30;;
70301;SDS011;57706;56.326;43.882;2023-09-19T05:01:54;5.28;;;1.73;;
70301;SDS011;57706;56.326;43.882;2023-09-19T05:04:19;3.83;;;1.30;;
70301;SDS011;57706;56.326;43.882;2023-09-19T05:06:45;4.18;;;1.58;;
70301;SDS011;57706;56.326;43.882;2023-09-19T05:09:11;3.75;;;1.10;;
70301;SDS011;57706;56.326;43.882;2023-09-19T05:11:37;6.72;;;1.90;;
70301;SDS011;57706;56.326;43.882;2023-09-19T05:14:04;1.48;;;1.17;;
70301;SDS011;57706;56.326;43.882;2023-09-19T05:16:30;3.53;;;1.40;;
70301;SDS011;57706;56.326;43.882;2023-09-19T05:18:59;4.75;;;1.33;;
70301;SDS011;57706;56.326;43.882;2023-09-19T05:21:27;5.38;;;1.50;;
70301;SDS011;57706;56.326;43.882;2023-09-19T05:23:56;4.25;;;1.52;;
70301;SDS011;57706;56.326;43.882;2023-09-19T05:26:23;2.53;;;1.52;;
70301;SDS011;57706;56.326;43.882;2023-09-19T05:28:48;3.88;;;1.30;;
70301;SDS011;57706;56.326;43.882;2023-09-19T05:31:14;2.08;;;1.20;;
70301;SDS011;57706;56.326;43.882;2023-09-19T05:33:41;1.95;;;1.23;;
70301;SDS011;57706;56.326;43.882;2023-09-19T05:36:08;3.90;;;1.55;;
70301;SDS011;57706;56.326;43.882;2023-09-19T05:38:36;1.92;;;1.10;;
70301;SDS011;57706;56.326;43.882;2023-09-19T05:41:02;1.63;;;1.25;;
70301;SDS011;57706;56.326;43.882;2023-09-19T05:43:28;2.75;;;1.40;;
70301;SDS011;57706;56.326;43.882;2023-09-19T05:45:54;1.75;;;1.23;;
70301;SDS011;57706;56.326;43.882;2023-09-19T05:48:22;7.22;;;1.58;;
70301;SDS011;57706;56.326;43.882;2023-09-19T05:50:48;4.22;;;1.33;;
70301;SDS011;57706;56.326;43.882;2023-09-19T05:53:15;8.85;;;1.55;;
70301;SDS011;57706;56.326;43.882;2023-09-19T05:55:41;12.88;;;1.73;;
70301;SDS011;57706;56.326;43.882;2023-09-19T05:58:07;5.70;;;1.35;;
70301;SDS011;57706;56.326;43.882;2023-09-19T06:00:34;12.30;;;1.85;;
70301;SDS011;57706;56.326;43.882;2023-09-19T06:03:00;3.40;;;1.75;;
70301;SDS011;57706;56.326;43.882;2023-09-19T06:05:27;5.82;;;1.52;;
70301;SDS011;57706;56.326;43.882;2023-09-19T06:07:53;2.05;;;1.30;;
70301;SDS011;57706;56.326;43.882;2023-09-19T06:10:19;3.88;;;1.40;;
70301;SDS011;57706;56.326;43.882;2023-09-19T06:12:48;3.63;;;1.33;;
70301;SDS011;57706;56.326;43.882;2023-09-19T06:15:15;6.55;;;1.58;;
70301;SDS011;57706;56.326;43.882;2023-09-19T06:17:46;5.20;;;1.70;;
70301;SDS011;57706;56.326;43.882;2023-09-19T06:20:13;5.63;;;1.33;;
70301;SDS011;57706;56.326;43.882;2023-09-19T06:22:43;21.83;;;1.95;;
70301;SDS011;57706;56.326;43.882;2023-09-19T06:25:11;2.10;;;1.33;;
70301;SDS011;57706;56.326;43.882;2023-09-19T06:27:41;7.50;;;1.52;;
70301;SDS011;57706;56.326;43.882;2023-09-19T06:30:09;4.40;;;1.33;;
70301;SDS011;57706;56.326;43.882;2023-09-19T06:32:37;2.88;;;1.30;;
70301;SDS011;57706;56.326;43.882;2023-09-19T06:35:04;2.67;;;1.35;;
70301;SDS011;57706;56.326;43.882;2023-09-19T06:37:33;2.45;;;1.35;;
70301;SDS011;57706;56.326;43.882;2023-09-19T06:40:00;6.05;;;1.27;;
70301;SDS011;57706;56.326;43.882;2023-09-19T06:42:26;4.75;;;1.40;;
70301;SDS011;57706;56.326;43.882;2023-09-19T06:44:54;7.32;;;1.63;;
70301;SDS011;57706;56.326;43.882;2023-09-19T06:47:20;5.63;;;1.30;;
70301;SDS011;57706;56.326;43.882;2023-09-19T06:49:46;3.30;;;1.20;;
70301;SDS011;57706;56.326;43.882;2023-09-19T06:52:13;6.00;;;1.35;;
70301;SDS011;57706;56.326;43.882;2023-09-19T06:54:40;1.30;;;1.20;;
70301;SDS011;57706;56.326;43.882;2023-09-19T06:57:07;2.58;;;1.35;;
70301;SDS011;57706;56.326;43.882;2023-09-19T06:59:35;26.98;;;1.80;;
70301;SDS011;57706;56.326;43.882;2023-09-19T07:02:03;1.48;;;1.00;;
70301;SDS011;57706;56.326;43.882;2023-09-19T07:04:32;3.17;;;1.40;;
70301;SDS011;57706;56.326;43.882;2023-09-19T07:06:58;3.17;;;1.30;;
70301;SDS011;57706;56.326;43.882;2023-09-19T07:09:24;3.05;;;1.35;;
70301;SDS011;57706;56.326;43.882;2023-09-19T07:11:53;5.00;;;1.30;;
70301;SDS011;57706;56.326;43.882;2023-09-19T07:14:20;5.78;;;1.10;;
70301;SDS011;57706;56.326;43.882;2023-09-19T07:16:46;5.53;;;1.33;;
70301;SDS011;57706;56.326;43.882;2023-09-19T07:19:17;6.22;;;1.20;;
70301;SDS011;57706;56.326;43.882;2023-09-19T07:21:43;5.07;;;1.05;;
70301;SDS011;57706;56.326;43.882;2023-09-19T07:24:08;2.05;;;0.93;;
70301;SDS011;57706;56.326;43.882;2023-09-19T07:26:34;3.40;;;1.20;;
70301;SDS011;57706;56.326;43.882;2023-09-19T07:29:00;4.35;;;1.08;;
70301;SDS011;57706;56.326;43.882;2023-09-19T07:31:32;2.10;;;1.15;;
70301;SDS011;57706;56.326;43.882;2023-09-19T07:33:57;2.35;;;1.00;;
70301;SDS011;57706;56.326;43.882;2023-09-19T07:36:23;8.10;;;1.50;;
70301;SDS011;57706;56.326;43.882;2023-09-19T07:38:50;11.57;;;1.52;;
70301;SDS011;57706;56.326;43.882;2023-09-19T07:41:16;4.07;;;1.20;;
70301;SDS011;57706;56.326;43.882;2023-09-19T07:43:42;4.63;;;1.10;;
70301;SDS011;57706;56.326;43.882;2023-09-19T07:46:09;1.80;;;1.35;;
70301;SDS011;57706;56.326;43.882;2023-09-19T07:48:35;2.50;;;1.00;;
70301;SDS011;57706;56.326;43.882;2023-09-19T07:51:06;3.53;;;0.90;;
70301;SDS011;57706;56.326;43.882;2023-09-19T07:53:35;1.75;;;0.85;;
70301;SDS011;57706;56.326;43.882;2023-09-19T07:56:04;2.97;;;1.30;;
70301;SDS011;57706;56.326;43.882;2023-09-19T07:58:32;4.88;;;1.00;;
70301;SDS011;57706;56.326;43.882;2023-09-19T08:01:06;1.85;;;1.05;;
70301;SDS011;57706;56.326;43.882;2023-09-19T08:03:36;1.42;;;0.90;;
70301;SDS011;57706;56.326;43.882;2023-09-19T08:06:06;3.60;;;1.00;;
70301;SDS011;57706;56.326;43.882;2023-09-19T08:08:33;6.15;;;1.10;;
70301;SDS011;57706;56.326;43.882;2023-09-19T08:11:08;1.98;;;1.63;;
70301;SDS011;57706;56.326;43.882;2023-09-19T08:16:08;2.88;;;1.38;;
70301;SDS011;57706;56.326;43.882;2023-09-19T08:18:38;2.72;;;1.60;;
70301;SDS011;57706;56.326;43.882;2023-09-19T08:21:06;3.13;;;1.33;;
70301;SDS011;57706;56.326;43.882;2023-09-19T08:23:37;7.70;;;1.50;;
70301;SDS011;57706;56.326;43.882;2023-09-19T08:26:07;3.53;;;1.70;;
70301;SDS011;57706;56.326;43.882;2023-09-19T08:28:35;6.22;;;1.20;;
70301;SDS011;57706;56.326;43.882;2023-09-19T08:31:02;3.33;;;1.45;;
70301;SDS011;57706;56.326;43.882;2023-09-19T08:33:33;4.95;;;1.23;;
70301;SDS011;57706;56.326;43.882;2023-09-19T08:35:59;6.03;;;1.77;;
70301;SDS011;57706;56.326;43.882;2023-09-19T08:38:25;1.58;;;1.40;;
70301;SDS011;57706;56.326;43.882;2023-09-19T08:40:59;5.20;;;1.40;;
70301;SDS011;57706;56.326;43.882;2023-09-19T08:43:25;3.13;;;1.88;;
70301;SDS011;57706;56.326;43.882;2023-09-19T08:45:56;2.42;;;1.48;;
70301;SDS011;57706;56.326;43.882;2023-09-19T08:48:28;3.47;;;1.23;;
70301;SDS011;57706;56.326;43.882;2023-09-19T08:50:57;8.55;;;2.00;;
70301;SDS011;57706;56.326;43.882;2023-09-19T08:56:31;5.85;;;1.20;;
70301;SDS011;57706;56.326;43.882;2023-09-19T08:59:04;8.70;;;1.50;;
70301;SDS011;57706;56.326;43.882;2023-09-19T09:01:34;2.97;;;1.40;;
70301;SDS011;57706;56.326;43.882;2023-09-19T09:04:01;6.35;;;1.98;;
70301;SDS011;57706;56.326;43.882;2023-09-19T09:06:28;9.77;;;2.08;;
70301;SDS011;57706;56.326;43.882;2023-09-19T09:08:55;6.88;;;1.65;;
70301;SDS011;57706;56.326;43.882;2023-09-19T09:11:21;4.80;;;2.80;;
70301;SDS011;57706;56.326;43.882;2023-09-19T09:13:50;8.90;;;2.20;;
70301;SDS011;57706;56.326;43.882;2023-09-19T09:16:16;8.00;;;2.13;;
70301;SDS011;57706;56.326;43.882;2023-09-19T09:18:45;7.65;;;3.33;;
70301;SDS011;57706;56.326;43.882;2023-09-19T09:21:12;11.63;;;3.95;;
70301;SDS011;57706;56.326;43.882;2023-09-19T09:23:40;3.97;;;2.50;;
70301;SDS011;57706;56.326;43.882;2023-09-19T09:26:05;8.23;;;3.45;;
70301;SDS011;57706;56.326;43.882;2023-09-19T09:28:33;7.00;;;2.63;;
70301;SDS011;57706;56.326;43.882;2023-09-19T09:31:01;8.68;;;3.00;;
70301;SDS011;57706;56.326;43.882;2023-09-19T09:33:35;12.00;;;3.88;;
70301;SDS011;57706;56.326;43.882;2023-09-19T09:36:02;9.77;;;3.97;;
70301;SDS011;57706;56.326;43.882;2023-09-19T09:38:30;13.68;;;5.00;;
70301;SDS011;57706;56.326;43.882;2023-09-19T09:41:09;10.23;;;3.63;;
70301;SDS011;57706;56.326;43.882;2023-09-19T09:43:36;8.02;;;4.20;;
70301;SDS011;57706;56.326;43.882;2023-09-19T09:46:08;59.47;;;8.68;;
70301;SDS011;57706;56.326;43.882;2023-09-19T09:49:04;16.75;;;5.90;;
70301;SDS011;57706;56.326;43.882;2023-09-19T09:51:49;18.30;;;5.72;;
70301;SDS011;57706;56.326;43.882;2023-09-19T09:54:26;7.80;;;3.72;;
70301;SDS011;57706;56.326;43.882;2023-09-19T09:56:59;7.40;;;4.07;;
70301;SDS011;57706;56.326;43.882;2023-09-19T09:59:50;9.73;;;3.72;;
70301;SDS011;57706;56.326;43.882;2023-09-19T10:02:43;6.05;;;3.45;;
70301;SDS011;57706;56.326;43.882;2023-09-19T10:05:12;6.15;;;3.88;;
70301;SDS011;57706;56.326;43.882;2023-09-19T10:07:49;11.02;;;4.88;;
70301;SDS011;57706;56.326;43.882;2023-09-19T10:13:06;9.55;;;3.80;;
70301;SDS011;57706;56.326;43.882;2023-09-19T10:15:33;11.48;;;4.40;;
70301;SDS011;57706;56.326;43.882;2023-09-19T10:18:00;9.52;;;4.47;;
70301;SDS011;57706;56.326;43.882;2023-09-19T10:20:29;12.52;;;4.38;;
70301;SDS011;57706;56.326;43.882;2023-09-19T10:22:56;10.40;;;5.05;;
70301;SDS011;57706;56.326;43.882;2023-09-19T10:25:26;12.13;;;4.32;;
70301;SDS011;57706;56.326;43.882;2023-09-19T10:28:02;12.10;;;4.75;;
70301;SDS011;57706;56.326;43.882;2023-09-19T10:30:36;22.88;;;5.05;;
70301;SDS011;57706;56.326;43.882;2023-09-19T10:33:09;10.77;;;4.60;;
70301;SDS011;57706;56.326;43.882;2023-09-19T10:35:37;11.13;;;4.63;;
70301;SDS011;57706;56.326;43.882;2023-09-19T10:38:11;13.10;;;4.70;;
70301;SDS011;57706;56.326;43.882;2023-09-19T10:40:42;10.93;;;4.55;;
70301;SDS011;57706;56.326;43.882;2023-09-19T10:43:17;11.65;;;4.10;;
70301;SDS011;57706;56.326;43.882;2023-09-19T10:45:47;5.53;;;3.70;;
70301;SDS011;57706;56.326;43.882;2023-09-19T10:48:16;12.77;;;3.78;;
70301;SDS011;57706;56.326;43.882;2023-09-19T10:50:47;14.70;;;3.75;;
70301;SDS011;57706;56.326;43.882;2023-09-19T10:53:16;12.60;;;4.18;;
70301;SDS011;57706;56.326;43.882;2023-09-19T10:55:53;14.25;;;3.70;;
70301;SDS011;57706;56.326;43.882;2023-09-19T10:58:26;12.35;;;3.70;;
70301;SDS011;57706;56.326;43.882;2023-09-19T11:01:00;8.77;;;3.28;;
70301;SDS011;57706;56.326;43.882;2023-09-19T11:03:31;6.03;;;2.92;;
70301;SDS011;57706;56.326;43.882;2023-09-19T11:14:15;10.88;;;2.83;;
70301;SDS011;57706;56.326;43.882;2023-09-19T11:30:43;5.13;;;2.70;;
70301;SDS011;57706;56.326;43.882;2023-09-19T11:36:07;8.60;;;2.17;;
70301;SDS011;57706;56.326;43.882;2023-09-19T11:43:50;5.00;;;2.42;;
70301;SDS011;57706;56.326;43.882;2023-09-19T11:46:17;5.40;;;3.35;;
70301;SDS011;57706;56.326;43.882;2023-09-19T11:48:48;12.65;;;2.88;;
70301;SDS011;57706;56.326;43.882;2023-09-19T11:51:39;8.00;;;2.75;;
70301;SDS011;57706;56.326;43.882;2023-09-19T11:54:11;8.27;;;2.80;;
70301;SDS011;57706;56.326;43.882;2023-09-19T11:56:44;10.95;;;3.17;;
70301;SDS011;57706;56.326;43.882;2023-09-19T11:59:13;6.10;;;2.72;;
70301;SDS011;57706;56.326;43.882;2023-09-19T12:01:51;8.80;;;3.08;;
70301;SDS011;57706;56.326;43.882;2023-09-19T12:07:12;6.78;;;2.90;;
70301;SDS011;57706;56.326;43.882;2023-09-19T12:09:49;4.60;;;3.00;;
70301;SDS011;57706;56.326;43.882;2023-09-19T12:12:20;5.05;;;2.55;;
70301;SDS011;57706;56.326;43.882;2023-09-19T12:14:49;7.60;;;2.55;;
70301;SDS011;57706;56.326;43.882;2023-09-19T12:17:19;6.28;;;2.50;;
70301;SDS011;57706;56.326;43.882;2023-09-19T12:19:53;7.35;;;2.47;;
70301;SDS011;57706;56.326;43.882;2023-09-19T12:22:21;5.07;;;2.42;;
70301;SDS011;57706;56.326;43.882;2023-09-19T12:24:47;7.00;;;2.33;;
70301;SDS011;57706;56.326;43.882;2023-09-19T12:27:14;4.43;;;2.42;;
70301;SDS011;57706;56.326;43.882;2023-09-19T12:29:44;6.18;;;2.47;;
70301;SDS011;57706;56.326;43.882;2023-09-19T12:32:11;7.63;;;2.60;;
70301;SDS011;57706;56.326;43.882;2023-09-19T12:34:38;6.38;;;2.22;;
70301;SDS011;57706;56.326;43.882;2023-09-19T12:37:12;7.72;;;2.25;;
70301;SDS011;57706;56.326;43.882;2023-09-19T12:39:50;12.60;;;2.92;;
70301;SDS011;57706;56.326;43.882;2023-09-19T12:42:23;7.03;;;2.08;;
70301;SDS011;57706;56.326;43.882;2023-09-19T12:44:53;4.78;;;2.00;;
70301;SDS011;57706;56.326;43.882;2023-09-19T12:47:23;5.28;;;2.25;;
70301;SDS011;57706;56.326;43.882;2023-09-19T12:52:52;4.30;;;2.60;;
70301;SDS011;57706;56.326;43.882;2023-09-19T12:55:28;6.20;;;2.67;;
70301;SDS011;57706;56.326;43.882;2023-09-19T13:00:41;6.10;;;2.28;;
70301;SDS011;57706;56.326;43.882;2023-09-19T13:08:24;9.18;;;2.67;;
70301;SDS011;57706;56.326;43.882;2023-09-19T13:11:15;9.88;;;2.13;;
70301;SDS011;57706;56.326;43.882;2023-09-19T13:13:47;8.25;;;2.25;;
70301;SDS011;57706;56.326;43.882;2023-09-19T13:16:19;6.88;;;2.00;;
70301;SDS011;57706;56.326;43.882;2023-09-19T13:18:49;8.90;;;1.90;;
70301;SDS011;57706;56.326;43.882;2023-09-19T13:21:17;2.63;;;1.55;;
70301;SDS011;57706;56.326;43.882;2023-09-19T13:23:52;7.53;;;1.80;;
70301;SDS011;57706;56.326;43.882;2023-09-19T13:26:28;4.28;;;2.08;;
70301;SDS011;57706;56.326;43.882;2023-09-19T13:28:54;5.85;;;2.13;;
70301;SDS011;57706;56.326;43.882;2023-09-19T13:31:20;7.30;;;1.73;;
70301;SDS011;57706;56.326;43.882;2023-09-19T13:33:47;6.55;;;1.60;;
70301;SDS011;57706;56.326;43.882;2023-09-19T13:36:14;5.22;;;1.85;;
70301;SDS011;57706;56.326;43.882;2023-09-19T13:38:42;6.38;;;1.52;;
70301;SDS011;57706;56.326;43.882;2023-09-19T13:41:12;3.97;;;1.63;;
70301;SDS011;57706;56.326;43.882;2023-09-19T13:43:39;3.42;;;1.83;;
70301;SDS011;57706;56.326;43.882;2023-09-19T13:46:05;4.70;;;1.63;;
70301;SDS011;57706;56.326;43.882;2023-09-19T13:48:33;5.68;;;1.52;;
70301;SDS011;57706;56.326;43.882;2023-09-19T13:51:02;5.28;;;2.40;;
70301;SDS011;57706;56.326;43.882;2023-09-19T13:53:29;6.68;;;1.80;;
70301;SDS011;57706;56.326;43.882;2023-09-19T13:55:55;4.90;;;1.83;;
70301;SDS011;57706;56.326;43.882;2023-09-19T13:58:20;2.72;;;1.73;;
70301;SDS011;57706;56.326;43.882;2023-09-19T14:00:48;4.05;;;1.48;;
70301;SDS011;57706;56.326;43.882;2023-09-19T14:03:14;2.30;;;1.42;;
70301;SDS011;57706;56.326;43.882;2023-09-19T14:05:40;6.90;;;1.70;;
70301;SDS011;57706;56.326;43.882;2023-09-19T14:08:08;1.92;;;1.20;;
70301;SDS011;57706;56.326;43.882;2023-09-19T14:10:34;5.05;;;1.50;;
70301;SDS011;57706;56.326;43.882;2023-09-19T14:13:00;2.00;;;1.40;;
70301;SDS011;57706;56.326;43.882;2023-09-19T14:15:27;4.88;;;1.40;;
70301;SDS011;57706;56.326;43.882;2023-09-19T14:18:00;3.65;;;1.50;;
70301;SDS011;57706;56.326;43.882;2023-09-19T14:20:27;5.53;;;1.23;;
70301;SDS011;57706;56.326;43.882;2023-09-19T14:22:54;4.97;;;1.30;;
70301;SDS011;57706;56.326;43.882;2023-09-19T14:25:20;2.17;;;1.30;;
70301;SDS011;57706;56.326;43.882;2023-09-19T14:27:47;2.85;;;1.35;;
70301;SDS011;57706;56.326;43.882;2023-09-19T14:30:13;2.70;;;1.25;;
70301;SDS011;57706;56.326;43.882;2023-09-19T14:32:39;27.52;;;2.22;;
70301;SDS011;57706;56.326;43.882;2023-09-19T14:35:06;6.03;;;1.27;;
70301;SDS011;57706;56.326;43.882;2023-09-19T14:37:33;3.65;;;1.30;;
70301;SDS011;57706;56.326;43.882;2023-09-19T14:39:59;5.18;;;1.30;;
70301;SDS011;57706;56.326;43.882;2023-09-19T14:42:24;25.00;;;1.98;;
70301;SDS011;57706;56.326;43.882;2023-09-19T14:44:50;4.75;;;1.30;;
70301;SDS011;57706;56.326;43.882;2023-09-19T14:47:16;2.97;;;1.40;;
70301;SDS011;57706;56.326;43.882;2023-09-19T14:49:42;10.30;;;1.63;;
70301;SDS011;57706;56.326;43.882;2023-09-19T14:52:08;4.45;;;1.65;;
70301;SDS011;57706;56.326;43.882;2023-09-19T14:54:35;6.28;;;1.80;;
70301;SDS011;57706;56.326;43.882;2023-09-19T14:57:03;3.88;;;2.00;;
70301;SDS011;57706;56.326;43.882;2023-09-19T14:59:30;2.95;;;2.35;;
70301;SDS011;57706;56.326;43.882;2023-09-19T15:01:57;8.70;;;2.33;;
70301;SDS011;57706;56.326;43.882;2023-09-19T15:04:24;7.50;;;2.38;;
70301;SDS011;57706;56.326;43.882;2023-09-19T15:06:49;21.67;;;2.38;;
70301;SDS011;57706;56.326;43.882;2023-09-19T15:09:16;13.88;;;2.33;;
70301;SDS011;57706;56.326;43.882;2023-09-19T15:11:44;18.52;;;3.35;;
70301;SDS011;57706;56.326;43.882;2023-09-19T15:14:10;15.88;;;3.13;;
70301;SDS011;57706;56.326;43.882;2023-09-19T15:16:36;9.07;;;2.28;;
70301;SDS011;57706;56.326;43.882;2023-09-19T15:19:01;12.40;;;2.90;;
70301;SDS011;57706;56.326;43.882;2023-09-19T15:21:27;9.93;;;2.78;;
70301;SDS011;57706;56.326;43.882;2023-09-19T15:23:53;12.88;;;2.90;;
70301;SDS011;57706;56.326;43.882;2023-09-19T15:26:19;13.38;;;3.05;;
70301;SDS011;57706;56.326;43.882;2023-09-19T15:28:47;15.65;;;3.67;;
70301;SDS011;57706;56.326;43.882;2023-09-19T15:31:13;13.07;;;4.60;;
70301;SDS011;57706;56.326;43.882;2023-09-19T15:33:39;11.63;;;4.80;;
70301;SDS011;57706;56.326;43.882;2023-09-19T15:36:09;11.65;;;3.50;;
70301;SDS011;57706;56.326;43.882;2023-09-19T15:38:58;11.98;;;4.68;;
70301;SDS011;57706;56.326;43.882;2023-09-19T15:41:25;16.67;;;3.63;;
70301;SDS011;57706;56.326;43.882;2023-09-19T15:43:53;19.45;;;4.82;;
70301;SDS011;57706;56.326;43.882;2023-09-19T15:46:19;21.55;;;6.45;;
70301;SDS011;57706;56.326;43.882;2023-09-19T15:48:47;28.35;;;6.93;;
70301;SDS011;57706;56.326;43.882;2023-09-19T15:51:13;39.00;;;8.32;;